sensor_id;sensor_type;location;lat;lon;timestamp;temperature;humidity
12885;DHT22;6510;51.362;7.370;2023-03-01T00:01:30;-1.90;99.90
12885;DHT22;6510;51.362;7.370;2023-03-01T00:03:57;-1.80;99.90
12885;DHT22;6510;51.362;7.370;2023-03-01T00:06:24;-1.90;99.90
12885;DHT22;6510;51.362;7.370;2023-03-01T00:08:50;-1.90;99.90
12885;DHT22;6510;51.362;7.370;2023-03-01T00:11:24;-1.90;99.90
12885;DHT22;6510;51.362;7.370;2023-03-01T00:13:53;-1.90;99.90
12885;DHT22;6510;51.362;7.370;2023-03-01T00:16:22;-1.80;99.90
12885;DHT22;6510;51.362;7.370;2023-03-01T00:18:48;-1.90;99.90
12885;DHT22;6510;51.362;7.370;2023-03-01T00:21:14;-2.00;99.90
12885;DHT22;6510;51.362;7.370;2023-03-01T00:23:40;-2.00;99.90
12885;DHT22;6510;51.362;7.370;2023-03-01T00:26:07;-2.00;99.90
12885;DHT22;6510;51.362;7.370;2023-03-01T00:28:34;-2.10;99.90
12885;DHT22;6510;51.362;7.370;2023-03-01T00:31:05;-2.10;99.90
12885;DHT22;6510;51.362;7.370;2023-03-01T00:33:30;-2.20;99.90
12885;DHT22;6510;51.362;7.370;2023-03-01T00:35:58;-2.20;99.90
12885;DHT22;6510;51.362;7.370;2023-03-01T00:38:24;-2.20;99.90
12885;DHT22;6510;51.362;7.370;2023-03-01T00:40:50;-2.10;99.90
12885;DHT22;6510;51.362;7.370;2023-03-01T00:43:15;-2.20;99.90
12885;DHT22;6510;51.362;7.370;2023-03-01T00:45:41;-2.20;99.90
12885;DHT22;6510;51.362;7.370;2023-03-01T00:48:06;-2.10;99.90
12885;DHT22;6510;51.362;7.370;2023-03-01T00:50:32;-2.10;99.90
12885;DHT22;6510;51.362;7.370;2023-03-01T00:52:58;-2.20;99.90
12885;DHT22;6510;51.362;7.370;2023-03-01T00:55:24;-2.30;99.90
12885;DHT22;6510;51.362;7.370;2023-03-01T00:57:51;-2.40;99.90
12885;DHT22;6510;51.362;7.370;2023-03-01T01:00:17;-2.40;99.90
12885;DHT22;6510;51.362;7.370;2023-03-01T01:02:44;-2.40;99.90
12885;DHT22;6510;51.362;7.370;2023-03-01T01:05:10;-2.40;99.90
12885;DHT22;6510;51.362;7.370;2023-03-01T01:07:36;-2.50;99.90
12885;DHT22;6510;51.362;7.370;2023-03-01T01:10:02;-2.50;99.90
12885;DHT22;6510;51.362;7.370;2023-03-01T01:12:27;-2.60;99.90
12885;DHT22;6510;51.362;7.370;2023-03-01T01:14:53;-2.60;99.90
12885;DHT22;6510;51.362;7.370;2023-03-01T01:17:19;-2.60;99.90
12885;DHT22;6510;51.362;7.370;2023-03-01T01:19:45;-2.70;99.90
12885;DHT22;6510;51.362;7.370;2023-03-01T01:22:10;-2.70;99.90
12885;DHT22;6510;51.362;7.370;2023-03-01T01:24:36;-2.80;99.90
12885;DHT22;6510;51.362;7.370;2023-03-01T01:27:02;-2.80;99.90
12885;DHT22;6510;51.362;7.370;2023-03-01T01:29:27;-2.90;99.90
12885;DHT22;6510;51.362;7.370;2023-03-01T01:31:53;-3.00;99.90
12885;DHT22;6510;51.362;7.370;2023-03-01T01:34:21;-3.00;99.90
12885;DHT22;6510;51.362;7.370;2023-03-01T01:36:51;-3.00;99.90
12885;DHT22;6510;51.362;7.370;2023-03-01T01:39:22;-3.00;99.90
12885;DHT22;6510;51.362;7.370;2023-03-01T01:41:48;-3.10;99.90
12885;DHT22;6510;51.362;7.370;2023-03-01T01:44:20;-3.10;99.90
12885;DHT22;6510;51.362;7.370;2023-03-01T01:52:26;-2.80;99.90
12885;DHT22;6510;51.362;7.370;2023-03-01T01:54:56;-2.70;99.90
12885;DHT22;6510;51.362;7.370;2023-03-01T01:57:26;-2.70;99.90
12885;DHT22;6510;51.362;7.370;2023-03-01T01:59:55;-2.70;99.90
12885;DHT22;6510;51.362;7.370;2023-03-01T02:02:22;-2.70;99.90
12885;DHT22;6510;51.362;7.370;2023-03-01T02:04:49;-2.70;99.90
12885;DHT22;6510;51.362;7.370;2023-03-01T02:07:21;-2.80;99.90
12885;DHT22;6510;51.362;7.370;2023-03-01T02:09:50;-2.90;99.90
12885;DHT22;6510;51.362;7.370;2023-03-01T02:12:19;-2.90;99.90
12885;DHT22;6510;51.362;7.370;2023-03-01T02:14:45;-2.90;99.90
12885;DHT22;6510;51.362;7.370;2023-03-01T02:17:12;-3.00;99.90
12885;DHT22;6510;51.362;7.370;2023-03-01T02:22:35;-3.20;99.90
12885;DHT22;6510;51.362;7.370;2023-03-01T02:27:42;-3.40;99.90
12885;DHT22;6510;51.362;7.370;2023-03-01T02:30:13;-3.40;99.90
12885;DHT22;6510;51.362;7.370;2023-03-01T02:32:40;-3.50;99.90
12885;DHT22;6510;51.362;7.370;2023-03-01T02:35:11;-3.50;99.90
12885;DHT22;6510;51.362;7.370;2023-03-01T02:37:39;-3.40;99.90
12885;DHT22;6510;51.362;7.370;2023-03-01T02:40:08;-3.30;99.90
12885;DHT22;6510;51.362;7.370;2023-03-01T02:42:48;-3.20;99.90
12885;DHT22;6510;51.362;7.370;2023-03-01T02:45:15;-3.20;99.90
12885;DHT22;6510;51.362;7.370;2023-03-01T02:47:40;-3.10;99.90
12885;DHT22;6510;51.362;7.370;2023-03-01T02:55:32;-3.10;99.90
12885;DHT22;6510;51.362;7.370;2023-03-01T02:58:02;-3.10;99.90
12885;DHT22;6510;51.362;7.370;2023-03-01T03:00:38;-3.10;99.90
12885;DHT22;6510;51.362;7.370;2023-03-01T03:03:06;-3.10;99.90
12885;DHT22;6510;51.362;7.370;2023-03-01T03:05:32;-3.20;99.90
12885;DHT22;6510;51.362;7.370;2023-03-01T03:08:00;-3.20;99.90
12885;DHT22;6510;51.362;7.370;2023-03-01T03:10:32;-3.40;99.90
12885;DHT22;6510;51.362;7.370;2023-03-01T03:13:01;-3.40;99.90
12885;DHT22;6510;51.362;7.370;2023-03-01T03:15:28;-3.40;99.90
12885;DHT22;6510;51.362;7.370;2023-03-01T03:17:55;-3.50;99.90
12885;DHT22;6510;51.362;7.370;2023-03-01T03:20:24;-3.50;99.90
12885;DHT22;6510;51.362;7.370;2023-03-01T03:22:52;-3.50;99.90
12885;DHT22;6510;51.362;7.370;2023-03-01T03:25:19;-3.40;99.90
12885;DHT22;6510;51.362;7.370;2023-03-01T03:27:47;-3.30;99.90
12885;DHT22;6510;51.362;7.370;2023-03-01T03:30:16;-3.20;99.90
12885;DHT22;6510;51.362;7.370;2023-03-01T03:32:44;-3.20;99.90
12885;DHT22;6510;51.362;7.370;2023-03-01T03:37:45;-3.30;99.90
12885;DHT22;6510;51.362;7.370;2023-03-01T03:40:36;-3.30;99.90
12885;DHT22;6510;51.362;7.370;2023-03-01T03:43:09;-3.30;99.90
12885;DHT22;6510;51.362;7.370;2023-03-01T03:45:36;-3.30;99.90
12885;DHT22;6510;51.362;7.370;2023-03-01T03:48:03;-3.30;99.90
12885;DHT22;6510;51.362;7.370;2023-03-01T03:50:30;-3.30;99.90
12885;DHT22;6510;51.362;7.370;2023-03-01T03:52:56;-3.40;99.90
12885;DHT22;6510;51.362;7.370;2023-03-01T03:55:21;-3.50;99.90
12885;DHT22;6510;51.362;7.370;2023-03-01T03:57:48;-3.50;99.90
12885;DHT22;6510;51.362;7.370;2023-03-01T04:00:21;-3.50;99.90
12885;DHT22;6510;51.362;7.370;2023-03-01T04:02:49;-3.50;99.90
12885;DHT22;6510;51.362;7.370;2023-03-01T04:05:17;-3.50;99.90
12885;DHT22;6510;51.362;7.370;2023-03-01T04:07:44;-3.50;99.90
12885;DHT22;6510;51.362;7.370;2023-03-01T04:10:12;-3.50;99.90
12885;DHT22;6510;51.362;7.370;2023-03-01T04:12:38;-3.60;99.90
12885;DHT22;6510;51.362;7.370;2023-03-01T04:15:05;-3.60;99.90
12885;DHT22;6510;51.362;7.370;2023-03-01T04:17:46;-3.60;99.90
12885;DHT22;6510;51.362;7.370;2023-03-01T04:20:17;-3.60;99.90
12885;DHT22;6510;51.362;7.370;2023-03-01T04:22:43;-3.70;99.90
12885;DHT22;6510;51.362;7.370;2023-03-01T04:25:12;-3.80;99.90
12885;DHT22;6510;51.362;7.370;2023-03-01T04:27:39;-3.70;99.90
12885;DHT22;6510;51.362;7.370;2023-03-01T04:30:06;-3.70;99.90
12885;DHT22;6510;51.362;7.370;2023-03-01T04:32:32;-3.60;99.90
12885;DHT22;6510;51.362;7.370;2023-03-01T04:34:58;-3.70;99.90
12885;DHT22;6510;51.362;7.370;2023-03-01T04:37:23;-3.70;99.90
12885;DHT22;6510;51.362;7.370;2023-03-01T04:39:49;-3.70;99.90
12885;DHT22;6510;51.362;7.370;2023-03-01T04:42:15;-3.70;99.90
12885;DHT22;6510;51.362;7.370;2023-03-01T04:44:42;-3.70;99.90
12885;DHT22;6510;51.362;7.370;2023-03-01T04:47:08;-3.70;99.90
12885;DHT22;6510;51.362;7.370;2023-03-01T04:49:33;-3.70;99.90
12885;DHT22;6510;51.362;7.370;2023-03-01T04:51:59;-3.70;99.90
12885;DHT22;6510;51.362;7.370;2023-03-01T04:54:30;-3.70;99.90
12885;DHT22;6510;51.362;7.370;2023-03-01T04:56:56;-3.70;99.90
12885;DHT22;6510;51.362;7.370;2023-03-01T04:59:22;-3.70;99.90
12885;DHT22;6510;51.362;7.370;2023-03-01T05:01:49;-3.60;99.90
12885;DHT22;6510;51.362;7.370;2023-03-01T05:04:14;-3.60;99.90
12885;DHT22;6510;51.362;7.370;2023-03-01T05:06:40;-3.70;99.90
12885;DHT22;6510;51.362;7.370;2023-03-01T05:09:06;-3.80;99.90
12885;DHT22;6510;51.362;7.370;2023-03-01T05:11:32;-3.90;99.90
12885;DHT22;6510;51.362;7.370;2023-03-01T05:14:02;-4.00;99.90
12885;DHT22;6510;51.362;7.370;2023-03-01T05:16:28;-4.00;99.90
12885;DHT22;6510;51.362;7.370;2023-03-01T05:18:53;-4.00;99.90
12885;DHT22;6510;51.362;7.370;2023-03-01T05:21:20;-4.10;99.90
12885;DHT22;6510;51.362;7.370;2023-03-01T05:23:46;-4.10;99.90
12885;DHT22;6510;51.362;7.370;2023-03-01T05:26:12;-4.10;99.90
12885;DHT22;6510;51.362;7.370;2023-03-01T05:28:38;-4.10;99.90
12885;DHT22;6510;51.362;7.370;2023-03-01T05:31:05;-4.10;99.90
12885;DHT22;6510;51.362;7.370;2023-03-01T05:33:38;-4.20;99.90
12885;DHT22;6510;51.362;7.370;2023-03-01T05:36:06;-4.20;99.90
12885;DHT22;6510;51.362;7.370;2023-03-01T05:38:33;-4.20;99.90
12885;DHT22;6510;51.362;7.370;2023-03-01T05:40:59;-4.20;99.90
12885;DHT22;6510;51.362;7.370;2023-03-01T05:43:24;-4.30;99.90
12885;DHT22;6510;51.362;7.370;2023-03-01T05:45:50;-4.30;99.90
12885;DHT22;6510;51.362;7.370;2023-03-01T05:48:16;-4.20;99.90
12885;DHT22;6510;51.362;7.370;2023-03-01T05:50:45;-4.30;99.90
12885;DHT22;6510;51.362;7.370;2023-03-01T05:53:18;-4.30;99.90
12885;DHT22;6510;51.362;7.370;2023-03-01T05:55:45;-4.30;99.90
12885;DHT22;6510;51.362;7.370;2023-03-01T05:58:15;-4.40;99.90
12885;DHT22;6510;51.362;7.370;2023-03-01T06:00:42;-4.30;99.90
12885;DHT22;6510;51.362;7.370;2023-03-01T06:03:10;-4.30;99.90
12885;DHT22;6510;51.362;7.370;2023-03-01T06:05:36;-4.20;99.90
12885;DHT22;6510;51.362;7.370;2023-03-01T06:08:02;-4.10;99.90
12885;DHT22;6510;51.362;7.370;2023-03-01T06:10:28;-4.10;99.90
12885;DHT22;6510;51.362;7.370;2023-03-01T06:12:54;-4.20;99.90
12885;DHT22;6510;51.362;7.370;2023-03-01T06:15:20;-4.10;99.90
12885;DHT22;6510;51.362;7.370;2023-03-01T06:17:46;-4.10;99.90
12885;DHT22;6510;51.362;7.370;2023-03-01T06:20:14;-4.20;99.90
12885;DHT22;6510;51.362;7.370;2023-03-01T06:22:41;-4.10;99.90
12885;DHT22;6510;51.362;7.370;2023-03-01T06:25:07;-4.10;99.90
12885;DHT22;6510;51.362;7.370;2023-03-01T06:27:33;-4.10;99.90
12885;DHT22;6510;51.362;7.370;2023-03-01T06:29:59;-4.10;99.90
12885;DHT22;6510;51.362;7.370;2023-03-01T06:32:25;-4.10;99.90
12885;DHT22;6510;51.362;7.370;2023-03-01T06:34:50;-4.10;99.90
12885;DHT22;6510;51.362;7.370;2023-03-01T06:37:16;-4.10;99.90
12885;DHT22;6510;51.362;7.370;2023-03-01T06:39:42;-4.00;99.90
12885;DHT22;6510;51.362;7.370;2023-03-01T06:42:08;-4.00;99.90
12885;DHT22;6510;51.362;7.370;2023-03-01T06:44:35;-3.90;99.90
12885;DHT22;6510;51.362;7.370;2023-03-01T06:47:01;-3.90;99.90
12885;DHT22;6510;51.362;7.370;2023-03-01T06:49:27;-3.80;99.90
12885;DHT22;6510;51.362;7.370;2023-03-01T06:51:52;-3.70;99.90
12885;DHT22;6510;51.362;7.370;2023-03-01T06:54:18;-3.60;99.90
12885;DHT22;6510;51.362;7.370;2023-03-01T06:56:46;-3.50;99.90
12885;DHT22;6510;51.362;7.370;2023-03-01T06:59:12;-3.40;99.90
12885;DHT22;6510;51.362;7.370;2023-03-01T07:01:38;-3.40;99.90
12885;DHT22;6510;51.362;7.370;2023-03-01T07:04:04;-3.30;99.90
12885;DHT22;6510;51.362;7.370;2023-03-01T07:06:30;-3.30;99.90
12885;DHT22;6510;51.362;7.370;2023-03-01T07:08:55;-3.20;99.90
12885;DHT22;6510;51.362;7.370;2023-03-01T07:11:21;-2.90;99.90
12885;DHT22;6510;51.362;7.370;2023-03-01T07:13:46;-2.50;99.90
12885;DHT22;6510;51.362;7.370;2023-03-01T07:16:12;-2.10;99.90
12885;DHT22;6510;51.362;7.370;2023-03-01T07:18:39;-1.20;99.90
12885;DHT22;6510;51.362;7.370;2023-03-01T07:21:06;-0.80;99.90
12885;DHT22;6510;51.362;7.370;2023-03-01T07:23:32;-0.30;99.90
12885;DHT22;6510;51.362;7.370;2023-03-01T07:25:58;0.40;99.90
12885;DHT22;6510;51.362;7.370;2023-03-01T07:28:24;1.00;99.90
12885;DHT22;6510;51.362;7.370;2023-03-01T07:30:49;1.30;99.90
12885;DHT22;6510;51.362;7.370;2023-03-01T07:33:17;1.20;99.90
12885;DHT22;6510;51.362;7.370;2023-03-01T07:35:42;2.20;99.90
12885;DHT22;6510;51.362;7.370;2023-03-01T07:38:08;2.40;99.90
12885;DHT22;6510;51.362;7.370;2023-03-01T07:40:35;2.40;99.90
12885;DHT22;6510;51.362;7.370;2023-03-01T07:43:01;3.00;99.90
12885;DHT22;6510;51.362;7.370;2023-03-01T07:45:27;3.40;99.90
12885;DHT22;6510;51.362;7.370;2023-03-01T07:47:55;4.40;99.90
12885;DHT22;6510;51.362;7.370;2023-03-01T07:50:21;5.00;99.90
12885;DHT22;6510;51.362;7.370;2023-03-01T07:52:48;5.70;99.90
12885;DHT22;6510;51.362;7.370;2023-03-01T07:55:15;5.40;99.90
12885;DHT22;6510;51.362;7.370;2023-03-01T07:57:40;6.20;99.90
12885;DHT22;6510;51.362;7.370;2023-03-01T08:00:07;6.50;99.90
12885;DHT22;6510;51.362;7.370;2023-03-01T08:02:33;6.90;99.90
12885;DHT22;6510;51.362;7.370;2023-03-01T08:04:58;6.90;99.90
12885;DHT22;6510;51.362;7.370;2023-03-01T08:07:24;6.70;99.90
12885;DHT22;6510;51.362;7.370;2023-03-01T08:09:50;6.90;99.90
12885;DHT22;6510;51.362;7.370;2023-03-01T08:12:15;7.00;99.90
12885;DHT22;6510;51.362;7.370;2023-03-01T08:14:42;7.10;99.90
12885;DHT22;6510;51.362;7.370;2023-03-01T08:17:08;6.60;99.90
12885;DHT22;6510;51.362;7.370;2023-03-01T08:19:34;6.90;99.90
12885;DHT22;6510;51.362;7.370;2023-03-01T08:22:01;7.10;99.90
12885;DHT22;6510;51.362;7.370;2023-03-01T08:24:27;7.10;99.90
12885;DHT22;6510;51.362;7.370;2023-03-01T08:26:53;7.20;99.90
12885;DHT22;6510;51.362;7.370;2023-03-01T08:29:19;7.40;99.90
12885;DHT22;6510;51.362;7.370;2023-03-01T08:31:44;7.50;99.90
12885;DHT22;6510;51.362;7.370;2023-03-01T08:34:15;7.00;99.90
12885;DHT22;6510;51.362;7.370;2023-03-01T08:36:43;7.10;99.90
12885;DHT22;6510;51.362;7.370;2023-03-01T08:39:11;7.80;99.90
12885;DHT22;6510;51.362;7.370;2023-03-01T08:41:37;7.90;99.90
12885;DHT22;6510;51.362;7.370;2023-03-01T08:44:03;7.90;99.90
12885;DHT22;6510;51.362;7.370;2023-03-01T08:46:32;8.10;99.90
12885;DHT22;6510;51.362;7.370;2023-03-01T08:48:58;8.60;99.90
12885;DHT22;6510;51.362;7.370;2023-03-01T08:51:24;7.60;99.90
12885;DHT22;6510;51.362;7.370;2023-03-01T08:53:50;7.30;99.90
12885;DHT22;6510;51.362;7.370;2023-03-01T08:56:18;7.10;99.90
12885;DHT22;6510;51.362;7.370;2023-03-01T08:58:47;7.00;99.90
12885;DHT22;6510;51.362;7.370;2023-03-01T09:01:16;6.70;99.90
12885;DHT22;6510;51.362;7.370;2023-03-01T09:03:43;7.10;99.90
12885;DHT22;6510;51.362;7.370;2023-03-01T09:06:09;7.60;99.90
12885;DHT22;6510;51.362;7.370;2023-03-01T09:08:40;7.60;99.90
12885;DHT22;6510;51.362;7.370;2023-03-01T09:11:09;7.50;99.90
12885;DHT22;6510;51.362;7.370;2023-03-01T09:13:35;6.50;99.90
12885;DHT22;6510;51.362;7.370;2023-03-01T09:16:02;7.10;99.90
12885;DHT22;6510;51.362;7.370;2023-03-01T09:18:31;7.00;99.90
12885;DHT22;6510;51.362;7.370;2023-03-01T09:21:12;6.90;99.90
12885;DHT22;6510;51.362;7.370;2023-03-01T09:23:48;8.50;99.90
12885;DHT22;6510;51.362;7.370;2023-03-01T09:26:19;8.10;99.90
12885;DHT22;6510;51.362;7.370;2023-03-01T09:28:46;8.00;99.90
12885;DHT22;6510;51.362;7.370;2023-03-01T09:31:13;7.50;99.90
12885;DHT22;6510;51.362;7.370;2023-03-01T09:33:41;8.60;99.90
12885;DHT22;6510;51.362;7.370;2023-03-01T09:36:13;8.30;99.90
12885;DHT22;6510;51.362;7.370;2023-03-01T09:38:39;8.30;99.90
12885;DHT22;6510;51.362;7.370;2023-03-01T09:41:54;8.00;99.90
12885;DHT22;6510;51.362;7.370;2023-03-01T09:44:27;7.50;99.90
12885;DHT22;6510;51.362;7.370;2023-03-01T09:46:55;8.40;99.90
12885;DHT22;6510;51.362;7.370;2023-03-01T09:49:28;7.20;99.90
12885;DHT22;6510;51.362;7.370;2023-03-01T09:52:53;8.60;99.90
12885;DHT22;6510;51.362;7.370;2023-03-01T09:54:58;6.60;99.90
12885;DHT22;6510;51.362;7.370;2023-03-01T09:57:53;7.40;99.90
12885;DHT22;6510;51.362;7.370;2023-03-01T10:00:36;7.60;99.90
12885;DHT22;6510;51.362;7.370;2023-03-01T10:03:26;7.80;99.90
12885;DHT22;6510;51.362;7.370;2023-03-01T10:06:10;8.20;99.90
12885;DHT22;6510;51.362;7.370;2023-03-01T10:09:18;9.50;99.90
12885;DHT22;6510;51.362;7.370;2023-03-01T10:11:48;8.80;99.90
12885;DHT22;6510;51.362;7.370;2023-03-01T10:14:42;8.40;99.90
12885;DHT22;6510;51.362;7.370;2023-03-01T10:19:46;9.30;99.90
12885;DHT22;6510;51.362;7.370;2023-03-01T10:22:19;8.80;99.90
12885;DHT22;6510;51.362;7.370;2023-03-01T10:24:49;8.60;99.90
12885;DHT22;6510;51.362;7.370;2023-03-01T10:30:00;10.20;99.90
12885;DHT22;6510;51.362;7.370;2023-03-01T10:32:28;11.00;99.90
12885;DHT22;6510;51.362;7.370;2023-03-01T10:34:54;10.50;99.90
12885;DHT22;6510;51.362;7.370;2023-03-01T10:37:21;11.30;99.90
12885;DHT22;6510;51.362;7.370;2023-03-01T10:39:56;12.20;99.90
12885;DHT22;6510;51.362;7.370;2023-03-01T10:42:30;11.90;99.90
12885;DHT22;6510;51.362;7.370;2023-03-01T10:44:57;12.50;99.90
12885;DHT22;6510;51.362;7.370;2023-03-01T10:47:25;11.90;99.90
12885;DHT22;6510;51.362;7.370;2023-03-01T10:49:59;12.50;99.90
12885;DHT22;6510;51.362;7.370;2023-03-01T10:55:04;13.00;99.90
12885;DHT22;6510;51.362;7.370;2023-03-01T10:57:48;12.70;99.90
12885;DHT22;6510;51.362;7.370;2023-03-01T11:00:25;12.80;99.90
12885;DHT22;6510;51.362;7.370;2023-03-01T11:03:11;13.20;99.90
12885;DHT22;6510;51.362;7.370;2023-03-01T11:05:54;12.70;99.90
12885;DHT22;6510;51.362;7.370;2023-03-01T11:11:26;11.80;99.90
12885;DHT22;6510;51.362;7.370;2023-03-01T11:16:36;13.10;99.90
12885;DHT22;6510;51.362;7.370;2023-03-01T11:21:50;13.90;99.90
12885;DHT22;6510;51.362;7.370;2023-03-01T11:24:18;14.70;99.90
12885;DHT22;6510;51.362;7.370;2023-03-01T11:26:53;13.80;99.90
12885;DHT22;6510;51.362;7.370;2023-03-01T11:31:55;14.00;99.90
12885;DHT22;6510;51.362;7.370;2023-03-01T11:34:38;13.60;99.90
12885;DHT22;6510;51.362;7.370;2023-03-01T11:37:12;13.80;99.90
12885;DHT22;6510;51.362;7.370;2023-03-01T11:39:53;14.30;99.90
12885;DHT22;6510;51.362;7.370;2023-03-01T11:42:30;14.20;99.90
12885;DHT22;6510;51.362;7.370;2023-03-01T11:45:08;14.30;99.90
12885;DHT22;6510;51.362;7.370;2023-03-01T11:47:43;15.50;99.90
12885;DHT22;6510;51.362;7.370;2023-03-01T11:50:45;13.70;99.90
12885;DHT22;6510;51.362;7.370;2023-03-01T11:55:55;13.80;99.90
12885;DHT22;6510;51.362;7.370;2023-03-01T11:58:59;14.30;99.90
12885;DHT22;6510;51.362;7.370;2023-03-01T12:01:51;14.20;99.90
12885;DHT22;6510;51.362;7.370;2023-03-01T12:04:30;13.50;99.90
12885;DHT22;6510;51.362;7.370;2023-03-01T12:23:13;13.60;99.90
12885;DHT22;6510;51.362;7.370;2023-03-01T12:25:58;14.00;99.90
12885;DHT22;6510;51.362;7.370;2023-03-01T12:31:46;14.10;99.90
12885;DHT22;6510;51.362;7.370;2023-03-01T12:37:18;13.10;99.90
12885;DHT22;6510;51.362;7.370;2023-03-01T12:45:46;13.50;99.90
12885;DHT22;6510;51.362;7.370;2023-03-01T12:50:53;13.90;99.90
12885;DHT22;6510;51.362;7.370;2023-03-01T12:53:48;14.50;99.90
12885;DHT22;6510;51.362;7.370;2023-03-01T12:56:35;14.20;99.90
12885;DHT22;6510;51.362;7.370;2023-03-01T12:59:28;12.60;99.90
12885;DHT22;6510;51.362;7.370;2023-03-01T13:02:10;12.60;99.90
12885;DHT22;6510;51.362;7.370;2023-03-01T13:10:17;13.00;99.90
12885;DHT22;6510;51.362;7.370;2023-03-01T13:17:56;12.80;99.90
12885;DHT22;6510;51.362;7.370;2023-03-01T13:20:50;13.10;99.90
12885;DHT22;6510;51.362;7.370;2023-03-01T13:26:01;12.10;99.90
12885;DHT22;6510;51.362;7.370;2023-03-01T13:28:40;12.90;99.90
12885;DHT22;6510;51.362;7.370;2023-03-01T13:31:08;13.80;99.90
12885;DHT22;6510;51.362;7.370;2023-03-01T13:36:10;12.20;99.90
12885;DHT22;6510;51.362;7.370;2023-03-01T13:38:48;12.80;99.90
12885;DHT22;6510;51.362;7.370;2023-03-01T13:41:16;12.80;99.90
12885;DHT22;6510;51.362;7.370;2023-03-01T13:43:44;13.10;99.90
12885;DHT22;6510;51.362;7.370;2023-03-01T13:46:21;12.70;99.90
12885;DHT22;6510;51.362;7.370;2023-03-01T13:48:54;12.00;99.90
12885;DHT22;6510;51.362;7.370;2023-03-01T13:51:25;12.80;99.90
12885;DHT22;6510;51.362;7.370;2023-03-01T13:53:52;13.60;99.90
12885;DHT22;6510;51.362;7.370;2023-03-01T13:56:27;13.10;99.90
12885;DHT22;6510;51.362;7.370;2023-03-01T13:58:58;13.20;99.90
12885;DHT22;6510;51.362;7.370;2023-03-01T14:01:29;13.40;99.90
12885;DHT22;6510;51.362;7.370;2023-03-01T14:03:55;14.20;99.90
12885;DHT22;6510;51.362;7.370;2023-03-01T14:06:26;13.70;99.90
12885;DHT22;6510;51.362;7.370;2023-03-01T14:14:39;12.10;99.90
12885;DHT22;6510;51.362;7.370;2023-03-01T14:19:43;12.30;99.90
12885;DHT22;6510;51.362;7.370;2023-03-01T14:22:27;12.40;99.90
12885;DHT22;6510;51.362;7.370;2023-03-01T14:25:05;11.80;99.90
12885;DHT22;6510;51.362;7.370;2023-03-01T14:27:39;12.20;99.90
12885;DHT22;6510;51.362;7.370;2023-03-01T14:30:22;11.90;99.90
12885;DHT22;6510;51.362;7.370;2023-03-01T14:32:59;11.50;99.90
12885;DHT22;6510;51.362;7.370;2023-03-01T14:35:29;11.20;99.90
12885;DHT22;6510;51.362;7.370;2023-03-01T14:37:55;11.60;99.90
12885;DHT22;6510;51.362;7.370;2023-03-01T14:40:24;11.20;99.90
12885;DHT22;6510;51.362;7.370;2023-03-01T14:42:50;11.10;99.90
12885;DHT22;6510;51.362;7.370;2023-03-01T14:45:17;10.30;99.90
12885;DHT22;6510;51.362;7.370;2023-03-01T14:47:44;10.80;99.90
12885;DHT22;6510;51.362;7.370;2023-03-01T14:50:24;11.40;99.90
12885;DHT22;6510;51.362;7.370;2023-03-01T14:52:53;10.60;99.90
12885;DHT22;6510;51.362;7.370;2023-03-01T14:55:23;10.60;99.90
12885;DHT22;6510;51.362;7.370;2023-03-01T14:57:51;10.40;99.90
12885;DHT22;6510;51.362;7.370;2023-03-01T15:00:28;10.60;99.90
12885;DHT22;6510;51.362;7.370;2023-03-01T15:02:56;11.60;99.90
12885;DHT22;6510;51.362;7.370;2023-03-01T15:05:33;11.00;99.90
12885;DHT22;6510;51.362;7.370;2023-03-01T15:08:01;10.60;99.90
12885;DHT22;6510;51.362;7.370;2023-03-01T15:10:31;10.20;99.90
12885;DHT22;6510;51.362;7.370;2023-03-01T15:13:10;10.30;99.90
12885;DHT22;6510;51.362;7.370;2023-03-01T15:15:39;10.10;99.90
12885;DHT22;6510;51.362;7.370;2023-03-01T15:20:39;9.30;99.90
12885;DHT22;6510;51.362;7.370;2023-03-01T16:05:31;5.40;99.90
12885;DHT22;6510;51.362;7.370;2023-03-01T16:07:57;5.00;99.90
12885;DHT22;6510;51.362;7.370;2023-03-01T16:10:23;5.00;99.90
12885;DHT22;6510;51.362;7.370;2023-03-01T16:12:50;5.00;99.90
12885;DHT22;6510;51.362;7.370;2023-03-01T16:15:26;5.00;99.90
12885;DHT22;6510;51.362;7.370;2023-03-01T16:17:53;4.80;99.90
12885;DHT22;6510;51.362;7.370;2023-03-01T16:20:24;4.80;99.90
12885;DHT22;6510;51.362;7.370;2023-03-01T16:22:50;4.70;99.90
12885;DHT22;6510;51.362;7.370;2023-03-01T16:25:18;4.60;99.90
12885;DHT22;6510;51.362;7.370;2023-03-01T16:27:49;4.60;99.90
12885;DHT22;6510;51.362;7.370;2023-03-01T16:30:17;4.50;99.90
12885;DHT22;6510;51.362;7.370;2023-03-01T16:32:45;4.40;99.90
12885;DHT22;6510;51.362;7.370;2023-03-01T16:35:13;4.40;99.90
12885;DHT22;6510;51.362;7.370;2023-03-01T16:37:39;4.30;99.90
12885;DHT22;6510;51.362;7.370;2023-03-01T16:40:09;4.30;99.90
12885;DHT22;6510;51.362;7.370;2023-03-01T16:42:41;4.20;99.90
12885;DHT22;6510;51.362;7.370;2023-03-01T16:45:08;4.20;99.90
12885;DHT22;6510;51.362;7.370;2023-03-01T16:47:34;4.10;99.90
12885;DHT22;6510;51.362;7.370;2023-03-01T16:49:59;4.00;99.90
12885;DHT22;6510;51.362;7.370;2023-03-01T16:52:25;4.00;99.90
12885;DHT22;6510;51.362;7.370;2023-03-01T16:54:51;4.00;99.90
12885;DHT22;6510;51.362;7.370;2023-03-01T16:57:17;3.90;99.90
12885;DHT22;6510;51.362;7.370;2023-03-01T16:59:42;3.90;99.90
12885;DHT22;6510;51.362;7.370;2023-03-01T17:02:12;3.80;99.90
12885;DHT22;6510;51.362;7.370;2023-03-01T17:04:40;3.70;99.90
12885;DHT22;6510;51.362;7.370;2023-03-01T17:07:05;3.70;99.90
12885;DHT22;6510;51.362;7.370;2023-03-01T17:09:34;3.60;99.90
12885;DHT22;6510;51.362;7.370;2023-03-01T17:12:01;3.60;99.90
12885;DHT22;6510;51.362;7.370;2023-03-01T17:14:26;3.60;99.90
12885;DHT22;6510;51.362;7.370;2023-03-01T17:16:52;3.50;99.90
12885;DHT22;6510;51.362;7.370;2023-03-01T17:19:19;3.40;99.90
12885;DHT22;6510;51.362;7.370;2023-03-01T17:21:47;3.40;99.90
12885;DHT22;6510;51.362;7.370;2023-03-01T17:24:13;3.30;99.90
12885;DHT22;6510;51.362;7.370;2023-03-01T17:26:39;3.30;99.90
12885;DHT22;6510;51.362;7.370;2023-03-01T17:29:05;3.20;99.90
12885;DHT22;6510;51.362;7.370;2023-03-01T17:31:32;3.10;99.90
12885;DHT22;6510;51.362;7.370;2023-03-01T17:33:58;3.10;99.90
12885;DHT22;6510;51.362;7.370;2023-03-01T17:36:23;3.10;99.90
12885;DHT22;6510;51.362;7.370;2023-03-01T17:38:50;3.10;99.90
12885;DHT22;6510;51.362;7.370;2023-03-01T17:41:16;3.00;99.90
12885;DHT22;6510;51.362;7.370;2023-03-01T17:43:44;2.90;99.90
12885;DHT22;6510;51.362;7.370;2023-03-01T17:46:10;2.90;99.90
12885;DHT22;6510;51.362;7.370;2023-03-01T17:48:36;2.80;99.90
12885;DHT22;6510;51.362;7.370;2023-03-01T17:51:10;2.80;99.90
12885;DHT22;6510;51.362;7.370;2023-03-01T17:53:36;2.70;99.90
12885;DHT22;6510;51.362;7.370;2023-03-01T17:56:04;2.70;99.90
12885;DHT22;6510;51.362;7.370;2023-03-01T17:58:30;2.70;99.90
12885;DHT22;6510;51.362;7.370;2023-03-01T18:00:56;2.60;99.90
12885;DHT22;6510;51.362;7.370;2023-03-01T18:03:30;2.60;99.90
12885;DHT22;6510;51.362;7.370;2023-03-01T18:05:56;2.60;99.90
12885;DHT22;6510;51.362;7.370;2023-03-01T18:08:22;2.50;99.90
12885;DHT22;6510;51.362;7.370;2023-03-01T18:10:47;2.50;99.90
12885;DHT22;6510;51.362;7.370;2023-03-01T18:13:13;2.50;99.90
12885;DHT22;6510;51.362;7.370;2023-03-01T18:15:39;2.50;99.90
12885;DHT22;6510;51.362;7.370;2023-03-01T18:18:05;2.40;99.90
12885;DHT22;6510;51.362;7.370;2023-03-01T18:20:30;2.40;99.90
12885;DHT22;6510;51.362;7.370;2023-03-01T18:22:57;2.40;99.90
12885;DHT22;6510;51.362;7.370;2023-03-01T18:25:22;2.40;99.90
12885;DHT22;6510;51.362;7.370;2023-03-01T18:27:48;2.30;99.90